sensor_id;sensor_type;location;lat;lon;timestamp;temperature;humidity
44643;DHT22;33930;-34.276;150.954;2022-08-19T00:01:55;16.30;99.90
44643;DHT22;33930;-34.276;150.954;2022-08-19T00:04:26;16.20;99.90
44643;DHT22;33930;-34.276;150.954;2022-08-19T00:06:54;16.30;99.90
44643;DHT22;33930;-34.276;150.954;2022-08-19T00:09:23;16.40;99.90
44643;DHT22;33930;-34.276;150.954;2022-08-19T00:11:51;16.40;99.90
44643;DHT22;33930;-34.276;150.954;2022-08-19T00:14:20;16.50;99.90
44643;DHT22;33930;-34.276;150.954;2022-08-19T00:16:48;16.50;99.90
44643;DHT22;33930;-34.276;150.954;2022-08-19T00:19:17;16.60;99.90
44643;DHT22;33930;-34.276;150.954;2022-08-19T00:21:45;16.70;99.90
44643;DHT22;33930;-34.276;150.954;2022-08-19T00:24:13;16.70;99.90
44643;DHT22;33930;-34.276;150.954;2022-08-19T00:26:43;16.90;99.90
44643;DHT22;33930;-34.276;150.954;2022-08-19T00:29:12;17.10;99.90
44643;DHT22;33930;-34.276;150.954;2022-08-19T00:31:41;17.20;99.90
44643;DHT22;33930;-34.276;150.954;2022-08-19T00:34:10;17.50;99.90
44643;DHT22;33930;-34.276;150.954;2022-08-19T00:36:39;17.60;99.90
44643;DHT22;33930;-34.276;150.954;2022-08-19T00:39:07;17.80;99.90
44643;DHT22;33930;-34.276;150.954;2022-08-19T00:41:34;17.90;99.90
44643;DHT22;33930;-34.276;150.954;2022-08-19T00:44:07;18.00;99.90
44643;DHT22;33930;-34.276;150.954;2022-08-19T00:46:36;18.00;99.90
44643;DHT22;33930;-34.276;150.954;2022-08-19T00:49:31;18.20;99.90
44643;DHT22;33930;-34.276;150.954;2022-08-19T00:52:02;18.40;99.90
44643;DHT22;33930;-34.276;150.954;2022-08-19T00:54:31;18.60;99.90
44643;DHT22;33930;-34.276;150.954;2022-08-19T00:57:00;18.70;99.90
44643;DHT22;33930;-34.276;150.954;2022-08-19T00:59:29;18.80;99.90
44643;DHT22;33930;-34.276;150.954;2022-08-19T01:01:57;19.00;99.90
44643;DHT22;33930;-34.276;150.954;2022-08-19T01:04:24;19.10;99.90
44643;DHT22;33930;-34.276;150.954;2022-08-19T01:06:51;19.20;99.90
44643;DHT22;33930;-34.276;150.954;2022-08-19T01:09:19;19.40;99.90
44643;DHT22;33930;-34.276;150.954;2022-08-19T01:11:46;19.50;99.90
44643;DHT22;33930;-34.276;150.954;2022-08-19T01:14:15;19.70;99.90
44643;DHT22;33930;-34.276;150.954;2022-08-19T01:16:44;19.90;99.90
44643;DHT22;33930;-34.276;150.954;2022-08-19T01:19:45;20.10;99.90
44643;DHT22;33930;-34.276;150.954;2022-08-19T01:22:39;20.40;99.70
44643;DHT22;33930;-34.276;150.954;2022-08-19T01:25:04;20.70;99.60
44643;DHT22;33930;-34.276;150.954;2022-08-19T01:27:42;20.90;99.70
44643;DHT22;33930;-34.276;150.954;2022-08-19T01:30:18;21.00;99.70
44643;DHT22;33930;-34.276;150.954;2022-08-19T01:32:46;21.10;98.90
44643;DHT22;33930;-34.276;150.954;2022-08-19T01:35:14;20.70;97.30
44643;DHT22;33930;-34.276;150.954;2022-08-19T01:37:45;20.80;97.90
44643;DHT22;33930;-34.276;150.954;2022-08-19T01:40:13;20.90;97.90
44643;DHT22;33930;-34.276;150.954;2022-08-19T01:42:40;20.90;97.60
44643;DHT22;33930;-34.276;150.954;2022-08-19T01:45:09;20.80;97.20
44643;DHT22;33930;-34.276;150.954;2022-08-19T01:47:37;20.60;98.70
44643;DHT22;33930;-34.276;150.954;2022-08-19T01:50:07;20.60;99.00
44643;DHT22;33930;-34.276;150.954;2022-08-19T01:52:36;20.70;98.80
44643;DHT22;33930;-34.276;150.954;2022-08-19T01:55:07;20.70;97.70
44643;DHT22;33930;-34.276;150.954;2022-08-19T01:57:35;20.60;98.20
44643;DHT22;33930;-34.276;150.954;2022-08-19T02:00:06;20.40;98.80
44643;DHT22;33930;-34.276;150.954;2022-08-19T02:02:34;20.30;98.00
44643;DHT22;33930;-34.276;150.954;2022-08-19T02:05:02;20.20;98.30
44643;DHT22;33930;-34.276;150.954;2022-08-19T02:07:29;20.20;98.60
44643;DHT22;33930;-34.276;150.954;2022-08-19T02:09:56;20.10;99.80
44643;DHT22;33930;-34.276;150.954;2022-08-19T02:12:24;20.10;99.90
44643;DHT22;33930;-34.276;150.954;2022-08-19T02:14:51;19.90;99.80
44643;DHT22;33930;-34.276;150.954;2022-08-19T02:17:18;19.70;99.90
44643;DHT22;33930;-34.276;150.954;2022-08-19T02:19:46;19.50;99.40
44643;DHT22;33930;-34.276;150.954;2022-08-19T02:22:15;19.40;99.10
44643;DHT22;33930;-34.276;150.954;2022-08-19T02:24:42;19.30;99.90
44643;DHT22;33930;-34.276;150.954;2022-08-19T02:27:10;19.30;99.90
44643;DHT22;33930;-34.276;150.954;2022-08-19T02:29:37;19.20;99.60
44643;DHT22;33930;-34.276;150.954;2022-08-19T02:32:04;19.10;99.90
44643;DHT22;33930;-34.276;150.954;2022-08-19T02:34:32;19.10;99.50
44643;DHT22;33930;-34.276;150.954;2022-08-19T02:36:59;18.90;99.90
44643;DHT22;33930;-34.276;150.954;2022-08-19T02:39:26;18.80;99.90
44643;DHT22;33930;-34.276;150.954;2022-08-19T02:41:54;18.70;99.90
44643;DHT22;33930;-34.276;150.954;2022-08-19T02:44:21;18.60;99.90
44643;DHT22;33930;-34.276;150.954;2022-08-19T02:46:49;18.60;99.90
44643;DHT22;33930;-34.276;150.954;2022-08-19T02:49:16;18.70;99.90
44643;DHT22;33930;-34.276;150.954;2022-08-19T02:51:45;18.60;99.90
44643;DHT22;33930;-34.276;150.954;2022-08-19T02:54:14;18.70;99.90
44643;DHT22;33930;-34.276;150.954;2022-08-19T02:56:43;18.70;99.90
44643;DHT22;33930;-34.276;150.954;2022-08-19T02:59:10;18.90;99.90
44643;DHT22;33930;-34.276;150.954;2022-08-19T03:01:40;19.00;99.90
44643;DHT22;33930;-34.276;150.954;2022-08-19T03:04:09;19.30;99.90
44643;DHT22;33930;-34.276;150.954;2022-08-19T03:06:39;19.50;99.90
44643;DHT22;33930;-34.276;150.954;2022-08-19T03:09:07;19.60;99.90
44643;DHT22;33930;-34.276;150.954;2022-08-19T03:11:34;19.70;99.90
44643;DHT22;33930;-34.276;150.954;2022-08-19T03:14:03;19.80;99.90
44643;DHT22;33930;-34.276;150.954;2022-08-19T03:16:35;19.80;99.90
44643;DHT22;33930;-34.276;150.954;2022-08-19T03:19:03;19.80;99.90
44643;DHT22;33930;-34.276;150.954;2022-08-19T03:21:32;19.80;99.90
44643;DHT22;33930;-34.276;150.954;2022-08-19T03:24:03;19.80;99.90
44643;DHT22;33930;-34.276;150.954;2022-08-19T03:26:31;19.90;99.90
44643;DHT22;33930;-34.276;150.954;2022-08-19T03:29:02;19.90;99.90
44643;DHT22;33930;-34.276;150.954;2022-08-19T03:31:30;20.00;99.90
44643;DHT22;33930;-34.276;150.954;2022-08-19T03:33:58;20.10;99.90
44643;DHT22;33930;-34.276;150.954;2022-08-19T03:36:26;20.00;99.90
44643;DHT22;33930;-34.276;150.954;2022-08-19T03:39:00;20.10;99.90
44643;DHT22;33930;-34.276;150.954;2022-08-19T03:41:35;20.10;99.90
44643;DHT22;33930;-34.276;150.954;2022-08-19T03:44:04;20.00;99.90
44643;DHT22;33930;-34.276;150.954;2022-08-19T03:46:32;20.10;99.90
44643;DHT22;33930;-34.276;150.954;2022-08-19T03:49:02;20.10;99.90
44643;DHT22;33930;-34.276;150.954;2022-08-19T03:51:36;20.20;99.90
44643;DHT22;33930;-34.276;150.954;2022-08-19T03:54:06;20.30;99.90
44643;DHT22;33930;-34.276;150.954;2022-08-19T03:56:35;20.40;99.90
44643;DHT22;33930;-34.276;150.954;2022-08-19T03:59:05;20.70;99.90
44643;DHT22;33930;-34.276;150.954;2022-08-19T04:01:33;20.90;99.80
44643;DHT22;33930;-34.276;150.954;2022-08-19T04:04:02;21.00;99.60
44643;DHT22;33930;-34.276;150.954;2022-08-19T04:06:32;21.00;99.30
44643;DHT22;33930;-34.276;150.954;2022-08-19T04:09:03;21.00;99.20
44643;DHT22;33930;-34.276;150.954;2022-08-19T04:11:35;21.00;99.60
44643;DHT22;33930;-34.276;150.954;2022-08-19T04:14:05;20.70;99.90
44643;DHT22;33930;-34.276;150.954;2022-08-19T04:16:34;20.60;99.90
44643;DHT22;33930;-34.276;150.954;2022-08-19T04:19:03;20.30;99.90
44643;DHT22;33930;-34.276;150.954;2022-08-19T04:21:31;20.20;99.90
44643;DHT22;33930;-34.276;150.954;2022-08-19T04:23:58;20.00;99.90
44643;DHT22;33930;-34.276;150.954;2022-08-19T04:26:28;19.70;99.90
44643;DHT22;33930;-34.276;150.954;2022-08-19T04:28:59;19.50;99.90
44643;DHT22;33930;-34.276;150.954;2022-08-19T04:31:30;19.20;99.90
44643;DHT22;33930;-34.276;150.954;2022-08-19T04:33:59;19.00;99.90
44643;DHT22;33930;-34.276;150.954;2022-08-19T04:36:30;18.60;99.90
44643;DHT22;33930;-34.276;150.954;2022-08-19T04:39:01;18.30;99.90
44643;DHT22;33930;-34.276;150.954;2022-08-19T04:41:28;18.00;99.90
44643;DHT22;33930;-34.276;150.954;2022-08-19T04:44:14;17.80;99.90
44643;DHT22;33930;-34.276;150.954;2022-08-19T04:46:45;17.50;99.90
44643;DHT22;33930;-34.276;150.954;2022-08-19T04:49:16;17.60;99.90
44643;DHT22;33930;-34.276;150.954;2022-08-19T04:51:45;17.60;99.90
44643;DHT22;33930;-34.276;150.954;2022-08-19T04:54:14;17.70;99.90
44643;DHT22;33930;-34.276;150.954;2022-08-19T04:56:42;17.70;99.90
44643;DHT22;33930;-34.276;150.954;2022-08-19T04:59:10;17.80;99.90
44643;DHT22;33930;-34.276;150.954;2022-08-19T05:01:38;17.70;99.90
44643;DHT22;33930;-34.276;150.954;2022-08-19T05:04:07;17.60;99.90
44643;DHT22;33930;-34.276;150.954;2022-08-19T05:06:35;17.50;99.90
44643;DHT22;33930;-34.276;150.954;2022-08-19T05:09:06;17.30;99.90
44643;DHT22;33930;-34.276;150.954;2022-08-19T05:11:36;17.10;99.90
44643;DHT22;33930;-34.276;150.954;2022-08-19T05:14:06;16.90;99.90
44643;DHT22;33930;-34.276;150.954;2022-08-19T05:16:33;16.70;99.90
44643;DHT22;33930;-34.276;150.954;2022-08-19T05:19:01;16.60;99.90
44643;DHT22;33930;-34.276;150.954;2022-08-19T05:21:46;16.50;99.90
44643;DHT22;33930;-34.276;150.954;2022-08-19T05:24:32;16.20;99.90
44643;DHT22;33930;-34.276;150.954;2022-08-19T05:27:02;16.10;99.90
44643;DHT22;33930;-34.276;150.954;2022-08-19T05:29:33;15.80;99.90
44643;DHT22;33930;-34.276;150.954;2022-08-19T05:32:05;15.70;99.90
44643;DHT22;33930;-34.276;150.954;2022-08-19T05:34:37;15.70;99.90
44643;DHT22;33930;-34.276;150.954;2022-08-19T05:37:05;15.50;99.90
44643;DHT22;33930;-34.276;150.954;2022-08-19T05:39:36;15.40;99.90
44643;DHT22;33930;-34.276;150.954;2022-08-19T05:42:09;15.30;99.90
44643;DHT22;33930;-34.276;150.954;2022-08-19T05:44:39;15.20;99.90
44643;DHT22;33930;-34.276;150.954;2022-08-19T05:47:12;15.10;99.90
44643;DHT22;33930;-34.276;150.954;2022-08-19T05:49:42;15.10;99.90
44643;DHT22;33930;-34.276;150.954;2022-08-19T05:52:12;15.00;99.90
44643;DHT22;33930;-34.276;150.954;2022-08-19T05:54:42;15.00;99.90
44643;DHT22;33930;-34.276;150.954;2022-08-19T05:57:10;15.00;99.90
44643;DHT22;33930;-34.276;150.954;2022-08-19T05:59:37;14.90;99.90
44643;DHT22;33930;-34.276;150.954;2022-08-19T06:02:06;14.80;99.90
44643;DHT22;33930;-34.276;150.954;2022-08-19T06:04:33;14.80;99.90
44643;DHT22;33930;-34.276;150.954;2022-08-19T06:07:01;14.70;99.90
44643;DHT22;33930;-34.276;150.954;2022-08-19T06:09:28;14.70;99.90
44643;DHT22;33930;-34.276;150.954;2022-08-19T06:11:58;14.60;99.90
44643;DHT22;33930;-34.276;150.954;2022-08-19T06:14:33;14.50;99.90
44643;DHT22;33930;-34.276;150.954;2022-08-19T06:17:02;14.50;99.90
44643;DHT22;33930;-34.276;150.954;2022-08-19T06:19:30;14.30;99.90
44643;DHT22;33930;-34.276;150.954;2022-08-19T06:21:59;14.10;99.90
44643;DHT22;33930;-34.276;150.954;2022-08-19T06:24:28;14.00;99.90
44643;DHT22;33930;-34.276;150.954;2022-08-19T06:26:57;14.00;99.90
44643;DHT22;33930;-34.276;150.954;2022-08-19T06:29:26;13.90;99.90
44643;DHT22;33930;-34.276;150.954;2022-08-19T06:31:56;13.80;99.90
44643;DHT22;33930;-34.276;150.954;2022-08-19T06:34:25;13.70;99.90
44643;DHT22;33930;-34.276;150.954;2022-08-19T06:36:55;13.60;99.90
44643;DHT22;33930;-34.276;150.954;2022-08-19T06:39:27;13.40;99.90
44643;DHT22;33930;-34.276;150.954;2022-08-19T06:41:58;13.30;99.90
44643;DHT22;33930;-34.276;150.954;2022-08-19T06:44:29;13.20;99.90
44643;DHT22;33930;-34.276;150.954;2022-08-19T06:47:01;13.10;99.90
44643;DHT22;33930;-34.276;150.954;2022-08-19T06:49:29;13.00;99.90
44643;DHT22;33930;-34.276;150.954;2022-08-19T06:51:57;13.00;99.90
44643;DHT22;33930;-34.276;150.954;2022-08-19T06:54:25;12.90;99.90
44643;DHT22;33930;-34.276;150.954;2022-08-19T06:56:53;12.80;99.90
44643;DHT22;33930;-34.276;150.954;2022-08-19T06:59:22;12.80;99.90
44643;DHT22;33930;-34.276;150.954;2022-08-19T07:01:55;12.80;99.90
44643;DHT22;33930;-34.276;150.954;2022-08-19T07:04:26;12.80;99.90
44643;DHT22;33930;-34.276;150.954;2022-08-19T07:07:14;12.70;99.90
44643;DHT22;33930;-34.276;150.954;2022-08-19T07:09:43;12.50;99.90
44643;DHT22;33930;-34.276;150.954;2022-08-19T07:12:13;12.50;99.90
44643;DHT22;33930;-34.276;150.954;2022-08-19T07:14:43;12.50;99.90
44643;DHT22;33930;-34.276;150.954;2022-08-19T07:17:12;12.40;99.90
44643;DHT22;33930;-34.276;150.954;2022-08-19T07:19:40;12.50;99.90
44643;DHT22;33930;-34.276;150.954;2022-08-19T07:22:10;12.50;99.90
44643;DHT22;33930;-34.276;150.954;2022-08-19T07:24:38;12.50;99.90
44643;DHT22;33930;-34.276;150.954;2022-08-19T07:27:06;12.50;99.90
44643;DHT22;33930;-34.276;150.954;2022-08-19T07:29:36;12.40;99.90
44643;DHT22;33930;-34.276;150.954;2022-08-19T07:32:05;12.30;99.90
44643;DHT22;33930;-34.276;150.954;2022-08-19T07:34:33;12.30;99.90
44643;DHT22;33930;-34.276;150.954;2022-08-19T07:37:07;12.20;99.90
44643;DHT22;33930;-34.276;150.954;2022-08-19T07:39:36;12.10;99.90
44643;DHT22;33930;-34.276;150.954;2022-08-19T07:42:07;12.10;99.90
44643;DHT22;33930;-34.276;150.954;2022-08-19T07:44:37;12.10;99.90
44643;DHT22;33930;-34.276;150.954;2022-08-19T07:47:05;12.10;99.90
44643;DHT22;33930;-34.276;150.954;2022-08-19T07:49:33;12.10;99.90
44643;DHT22;33930;-34.276;150.954;2022-08-19T07:52:05;12.00;99.90
44643;DHT22;33930;-34.276;150.954;2022-08-19T07:54:36;11.80;99.90
44643;DHT22;33930;-34.276;150.954;2022-08-19T07:57:05;11.80;99.90
44643;DHT22;33930;-34.276;150.954;2022-08-19T07:59:33;11.70;99.90
44643;DHT22;33930;-34.276;150.954;2022-08-19T08:02:00;11.60;99.90
44643;DHT22;33930;-34.276;150.954;2022-08-19T08:04:29;11.50;99.90
44643;DHT22;33930;-34.276;150.954;2022-08-19T08:07:15;11.30;99.90
44643;DHT22;33930;-34.276;150.954;2022-08-19T08:10:02;11.20;99.90
44643;DHT22;33930;-34.276;150.954;2022-08-19T08:12:38;11.20;99.90
44643;DHT22;33930;-34.276;150.954;2022-08-19T08:15:14;11.20;99.90
44643;DHT22;33930;-34.276;150.954;2022-08-19T08:17:45;11.20;99.90
44643;DHT22;33930;-34.276;150.954;2022-08-19T08:20:13;11.20;99.90
44643;DHT22;33930;-34.276;150.954;2022-08-19T08:22:45;11.20;99.90
44643;DHT22;33930;-34.276;150.954;2022-08-19T08:25:30;11.20;99.90
44643;DHT22;33930;-34.276;150.954;2022-08-19T08:27:58;11.10;99.90
44643;DHT22;33930;-34.276;150.954;2022-08-19T08:30:28;11.10;99.90
44643;DHT22;33930;-34.276;150.954;2022-08-19T08:32:56;11.00;99.90
44643;DHT22;33930;-34.276;150.954;2022-08-19T08:35:24;10.90;99.90
44643;DHT22;33930;-34.276;150.954;2022-08-19T08:37:53;11.00;99.90
44643;DHT22;33930;-34.276;150.954;2022-08-19T08:40:49;11.00;99.90
44643;DHT22;33930;-34.276;150.954;2022-08-19T08:43:34;11.00;99.90
44643;DHT22;33930;-34.276;150.954;2022-08-19T08:46:06;11.10;99.90
44643;DHT22;33930;-34.276;150.954;2022-08-19T08:48:52;11.20;99.90
44643;DHT22;33930;-34.276;150.954;2022-08-19T08:51:26;11.30;99.90
44643;DHT22;33930;-34.276;150.954;2022-08-19T08:53:55;11.30;99.90
44643;DHT22;33930;-34.276;150.954;2022-08-19T08:56:23;11.40;99.90
44643;DHT22;33930;-34.276;150.954;2022-08-19T08:59:10;11.40;99.90
44643;DHT22;33930;-34.276;150.954;2022-08-19T09:01:39;11.40;99.90
44643;DHT22;33930;-34.276;150.954;2022-08-19T09:04:07;11.40;99.90
44643;DHT22;33930;-34.276;150.954;2022-08-19T09:09:32;11.50;99.90
44643;DHT22;33930;-34.276;150.954;2022-08-19T09:14:32;11.50;99.90
44643;DHT22;33930;-34.276;150.954;2022-08-19T09:17:01;11.60;99.90
44643;DHT22;33930;-34.276;150.954;2022-08-19T09:19:46;11.50;99.90
44643;DHT22;33930;-34.276;150.954;2022-08-19T09:22:14;11.60;99.90
44643;DHT22;33930;-34.276;150.954;2022-08-19T09:24:42;11.60;99.90
44643;DHT22;33930;-34.276;150.954;2022-08-19T09:27:09;11.60;99.90
44643;DHT22;33930;-34.276;150.954;2022-08-19T09:29:36;11.60;99.90
44643;DHT22;33930;-34.276;150.954;2022-08-19T09:32:04;11.50;99.90
44643;DHT22;33930;-34.276;150.954;2022-08-19T09:34:32;11.50;99.90
44643;DHT22;33930;-34.276;150.954;2022-08-19T09:36:59;11.40;99.90
44643;DHT22;33930;-34.276;150.954;2022-08-19T09:39:27;11.40;99.90
44643;DHT22;33930;-34.276;150.954;2022-08-19T09:41:54;11.30;99.90
44643;DHT22;33930;-34.276;150.954;2022-08-19T09:44:22;11.20;99.90
44643;DHT22;33930;-34.276;150.954;2022-08-19T09:46:49;11.10;99.90
44643;DHT22;33930;-34.276;150.954;2022-08-19T09:49:19;11.10;99.90
44643;DHT22;33930;-34.276;150.954;2022-08-19T09:51:52;11.00;99.90
44643;DHT22;33930;-34.276;150.954;2022-08-19T09:54:23;11.00;99.90
44643;DHT22;33930;-34.276;150.954;2022-08-19T09:56:53;10.90;99.90
44643;DHT22;33930;-34.276;150.954;2022-08-19T09:59:21;10.90;99.90
44643;DHT22;33930;-34.276;150.954;2022-08-19T10:01:48;10.80;99.90
44643;DHT22;33930;-34.276;150.954;2022-08-19T10:04:17;10.80;99.90
44643;DHT22;33930;-34.276;150.954;2022-08-19T10:06:44;10.80;99.90
44643;DHT22;33930;-34.276;150.954;2022-08-19T10:09:16;10.80;99.90
44643;DHT22;33930;-34.276;150.954;2022-08-19T10:11:45;10.80;99.90
44643;DHT22;33930;-34.276;150.954;2022-08-19T10:14:16;10.80;99.90
44643;DHT22;33930;-34.276;150.954;2022-08-19T10:16:48;10.70;99.90
44643;DHT22;33930;-34.276;150.954;2022-08-19T10:19:15;10.80;99.90
44643;DHT22;33930;-34.276;150.954;2022-08-19T10:21:43;10.70;99.90
44643;DHT22;33930;-34.276;150.954;2022-08-19T10:24:10;10.70;99.90
44643;DHT22;33930;-34.276;150.954;2022-08-19T10:26:39;10.70;99.90
44643;DHT22;33930;-34.276;150.954;2022-08-19T10:29:14;10.70;99.90
44643;DHT22;33930;-34.276;150.954;2022-08-19T10:31:42;10.60;99.90
44643;DHT22;33930;-34.276;150.954;2022-08-19T10:34:10;10.60;99.90
44643;DHT22;33930;-34.276;150.954;2022-08-19T10:36:37;10.50;99.90
44643;DHT22;33930;-34.276;150.954;2022-08-19T10:39:08;10.50;99.90
44643;DHT22;33930;-34.276;150.954;2022-08-19T10:41:37;10.50;99.90
44643;DHT22;33930;-34.276;150.954;2022-08-19T10:44:08;10.50;99.90
44643;DHT22;33930;-34.276;150.954;2022-08-19T10:46:40;10.40;99.90
44643;DHT22;33930;-34.276;150.954;2022-08-19T10:49:10;10.40;99.90
44643;DHT22;33930;-34.276;150.954;2022-08-19T10:51:39;10.30;99.90
44643;DHT22;33930;-34.276;150.954;2022-08-19T10:54:25;10.30;99.90
44643;DHT22;33930;-34.276;150.954;2022-08-19T10:57:12;10.20;99.90
44643;DHT22;33930;-34.276;150.954;2022-08-19T10:59:39;10.20;99.90
44643;DHT22;33930;-34.276;150.954;2022-08-19T11:02:09;10.10;99.90
44643;DHT22;33930;-34.276;150.954;2022-08-19T11:04:38;10.10;99.90
44643;DHT22;33930;-34.276;150.954;2022-08-19T11:07:06;10.00;99.90
44643;DHT22;33930;-34.276;150.954;2022-08-19T11:09:40;10.00;99.90
44643;DHT22;33930;-34.276;150.954;2022-08-19T11:12:10;10.10;99.90
44643;DHT22;33930;-34.276;150.954;2022-08-19T11:14:39;10.10;99.90
44643;DHT22;33930;-34.276;150.954;2022-08-19T11:17:06;10.10;99.90
44643;DHT22;33930;-34.276;150.954;2022-08-19T11:19:34;10.10;99.90
44643;DHT22;33930;-34.276;150.954;2022-08-19T11:22:02;10.10;99.90
44643;DHT22;33930;-34.276;150.954;2022-08-19T11:24:30;10.10;99.90
44643;DHT22;33930;-34.276;150.954;2022-08-19T11:27:05;10.10;99.90
44643;DHT22;33930;-34.276;150.954;2022-08-19T11:29:33;10.10;99.90
44643;DHT22;33930;-34.276;150.954;2022-08-19T11:32:07;10.10;99.90
44643;DHT22;33930;-34.276;150.954;2022-08-19T11:34:39;10.10;99.90
44643;DHT22;33930;-34.276;150.954;2022-08-19T11:37:06;10.10;99.90
44643;DHT22;33930;-34.276;150.954;2022-08-19T11:39:35;10.20;99.90
44643;DHT22;33930;-34.276;150.954;2022-08-19T11:42:05;10.20;99.90
44643;DHT22;33930;-34.276;150.954;2022-08-19T11:44:53;10.20;99.90
44643;DHT22;33930;-34.276;150.954;2022-08-19T11:47:20;10.20;99.90
44643;DHT22;33930;-34.276;150.954;2022-08-19T11:49:48;10.20;99.90
44643;DHT22;33930;-34.276;150.954;2022-08-19T11:52:15;10.20;99.90
44643;DHT22;33930;-34.276;150.954;2022-08-19T11:54:43;10.10;99.90
44643;DHT22;33930;-34.276;150.954;2022-08-19T11:57:10;10.10;99.90
44643;DHT22;33930;-34.276;150.954;2022-08-19T11:59:37;10.10;99.90
44643;DHT22;33930;-34.276;150.954;2022-08-19T12:02:05;10.10;99.90
44643;DHT22;33930;-34.276;150.954;2022-08-19T12:04:32;9.90;99.90
44643;DHT22;33930;-34.276;150.954;2022-08-19T12:06:59;10.00;99.90
44643;DHT22;33930;-34.276;150.954;2022-08-19T12:09:28;9.90;99.90
44643;DHT22;33930;-34.276;150.954;2022-08-19T12:11:55;10.00;99.90
44643;DHT22;33930;-34.276;150.954;2022-08-19T12:14:22;10.10;99.90
44643;DHT22;33930;-34.276;150.954;2022-08-19T12:16:50;10.10;99.90
44643;DHT22;33930;-34.276;150.954;2022-08-19T12:19:18;10.10;99.90
44643;DHT22;33930;-34.276;150.954;2022-08-19T12:21:45;10.10;99.90
44643;DHT22;33930;-34.276;150.954;2022-08-19T12:24:12;10.20;99.90
44643;DHT22;33930;-34.276;150.954;2022-08-19T12:26:40;10.20;99.90
44643;DHT22;33930;-34.276;150.954;2022-08-19T12:29:08;10.20;99.90
44643;DHT22;33930;-34.276;150.954;2022-08-19T12:31:36;10.20;99.90
44643;DHT22;33930;-34.276;150.954;2022-08-19T12:34:03;10.20;99.90
44643;DHT22;33930;-34.276;150.954;2022-08-19T12:36:30;10.30;99.90
44643;DHT22;33930;-34.276;150.954;2022-08-19T12:38:59;10.30;99.90
44643;DHT22;33930;-34.276;150.954;2022-08-19T12:41:27;10.30;99.90
44643;DHT22;33930;-34.276;150.954;2022-08-19T12:43:54;10.30;99.90
44643;DHT22;33930;-34.276;150.954;2022-08-19T12:46:21;10.30;99.90
44643;DHT22;33930;-34.276;150.954;2022-08-19T12:48:49;10.30;99.90
44643;DHT22;33930;-34.276;150.954;2022-08-19T12:51:19;10.30;99.90
44643;DHT22;33930;-34.276;150.954;2022-08-19T12:53:47;10.30;99.90
44643;DHT22;33930;-34.276;150.954;2022-08-19T12:56:16;10.30;99.90
44643;DHT22;33930;-34.276;150.954;2022-08-19T12:58:45;10.30;99.90
44643;DHT22;33930;-34.276;150.954;2022-08-19T13:01:15;10.30;99.90
44643;DHT22;33930;-34.276;150.954;2022-08-19T13:03:44;10.30;99.90
44643;DHT22;33930;-34.276;150.954;2022-08-19T13:06:12;10.30;99.90
44643;DHT22;33930;-34.276;150.954;2022-08-19T13:08:40;10.40;99.90
44643;DHT22;33930;-34.276;150.954;2022-08-19T13:11:16;10.30;99.90
44643;DHT22;33930;-34.276;150.954;2022-08-19T13:13:46;10.40;99.90
44643;DHT22;33930;-34.276;150.954;2022-08-19T13:16:15;10.40;99.90
44643;DHT22;33930;-34.276;150.954;2022-08-19T13:18:44;10.30;99.90
44643;DHT22;33930;-34.276;150.954;2022-08-19T13:21:11;10.30;99.90
44643;DHT22;33930;-34.276;150.954;2022-08-19T13:23:40;10.30;99.90
44643;DHT22;33930;-34.276;150.954;2022-08-19T13:26:09;10.30;99.90
44643;DHT22;33930;-34.276;150.954;2022-08-19T13:28:37;10.30;99.90
44643;DHT22;33930;-34.276;150.954;2022-08-19T13:31:25;10.20;99.90
44643;DHT22;33930;-34.276;150.954;2022-08-19T13:34:10;10.30;99.90
44643;DHT22;33930;-34.276;150.954;2022-08-19T13:36:38;10.30;99.90
44643;DHT22;33930;-34.276;150.954;2022-08-19T13:39:07;10.30;99.90
44643;DHT22;33930;-34.276;150.954;2022-08-19T13:41:36;10.20;99.90
44643;DHT22;33930;-34.276;150.954;2022-08-19T13:44:04;10.20;99.90
44643;DHT22;33930;-34.276;150.954;2022-08-19T13:46:33;10.20;99.90
44643;DHT22;33930;-34.276;150.954;2022-08-19T13:49:00;10.20;99.90
44643;DHT22;33930;-34.276;150.954;2022-08-19T13:51:27;10.20;99.90
44643;DHT22;33930;-34.276;150.954;2022-08-19T13:53:54;10.30;99.90
44643;DHT22;33930;-34.276;150.954;2022-08-19T13:56:22;10.20;99.90
44643;DHT22;33930;-34.276;150.954;2022-08-19T13:58:50;10.20;99.90
44643;DHT22;33930;-34.276;150.954;2022-08-19T14:01:22;10.20;99.90
44643;DHT22;33930;-34.276;150.954;2022-08-19T14:03:49;10.20;99.90
44643;DHT22;33930;-34.276;150.954;2022-08-19T14:06:17;10.20;99.90
44643;DHT22;33930;-34.276;150.954;2022-08-19T14:08:45;10.20;99.90
44643;DHT22;33930;-34.276;150.954;2022-08-19T14:11:12;10.20;99.90
44643;DHT22;33930;-34.276;150.954;2022-08-19T14:13:40;10.10;99.90
44643;DHT22;33930;-34.276;150.954;2022-08-19T14:16:12;10.10;99.90
44643;DHT22;33930;-34.276;150.954;2022-08-19T14:18:41;10.10;99.90
44643;DHT22;33930;-34.276;150.954;2022-08-19T14:21:15;10.10;99.90
44643;DHT22;33930;-34.276;150.954;2022-08-19T14:23:43;10.10;99.90
44643;DHT22;33930;-34.276;150.954;2022-08-19T14:26:15;10.10;99.90
44643;DHT22;33930;-34.276;150.954;2022-08-19T14:28:43;10.10;99.90
44643;DHT22;33930;-34.276;150.954;2022-08-19T14:31:13;10.10;99.90
44643;DHT22;33930;-34.276;150.954;2022-08-19T14:33:47;10.20;99.90
44643;DHT22;33930;-34.276;150.954;2022-08-19T14:36:15;10.20;99.90
44643;DHT22;33930;-34.276;150.954;2022-08-19T14:38:43;10.20;99.90
44643;DHT22;33930;-34.276;150.954;2022-08-19T14:41:28;10.20;99.90
44643;DHT22;33930;-34.276;150.954;2022-08-19T14:43:57;10.10;99.90
44643;DHT22;33930;-34.276;150.954;2022-08-19T14:46:26;10.10;99.90
44643;DHT22;33930;-34.276;150.954;2022-08-19T14:48:55;10.20;99.90
44643;DHT22;33930;-34.276;150.954;2022-08-19T14:51:24;10.10;99.90
44643;DHT22;33930;-34.276;150.954;2022-08-19T14:53:53;10.10;99.90
44643;DHT22;33930;-34.276;150.954;2022-08-19T14:56:23;10.20;99.90
44643;DHT22;33930;-34.276;150.954;2022-08-19T14:58:52;10.20;99.90
44643;DHT22;33930;-34.276;150.954;2022-08-19T15:01:21;10.20;99.90
44643;DHT22;33930;-34.276;150.954;2022-08-19T15:03:49;10.10;99.90
44643;DHT22;33930;-34.276;150.954;2022-08-19T15:06:19;10.10;99.90
44643;DHT22;33930;-34.276;150.954;2022-08-19T15:08:46;10.10;99.90
44643;DHT22;33930;-34.276;150.954;2022-08-19T15:11:16;10.10;99.90